aviador You're here:

OIBA Decoded Metar

ABUMUSA I. in IRAN
Report Time2017-08-18 14:00:00
UTC Time2017-08-18 14:26:23
Flight Rules mvfr MVFR
Wind300° at 08 kt
W.Decomp.*RWY 26: 6.2 kt HW 5.0 kt RCW
W.Rank300° ranks 10
Current wind is below 300° avg. (9.0)
Visibility6000 m
Phenomena:N/A
Clouds:N/A
Expected CloudBase > 2,400 ft AGL from Temp-Dew spread
CeilingNone
Temp35°C (ISA +20)
Dew Point29°C (71% RH)
Heat Index50.9°C
QNH0998 hPa
Density Alt3,323 ft
Elevation22 ft
Report Wrong Elevation
Raw Report
METAR OIBA 181400Z 30008KT 6000 NSC 35/29 Q0998=

Extra information for OIBA:More info

Metar Taf Metar & Taf Last 4 Metars F.Rules Stats Wind Profile Meteogram Temp Stats Airport Information Weather charts Add Link Nearby VenuesMetar ALERT Operation Metar Decoded Social comments